sensor_id;sensor_type;location;lat;lon;timestamp;pressure;altitude;pressure_sealevel;temperature;humidity
76022;BME280;64718;52.124;6.226;2022-12-18T00:01:58;102942.94;;;-6.32;95.75
76022;BME280;64718;52.124;6.226;2022-12-18T00:04:26;102936.97;;;-6.61;95.53
76022;BME280;64718;52.124;6.226;2022-12-18T00:06:53;102948.59;;;-6.78;96.20
76022;BME280;64718;52.124;6.226;2022-12-18T00:09:20;102946.28;;;-6.88;96.52
76022;BME280;64718;52.124;6.226;2022-12-18T00:11:47;102939.47;;;-6.89;96.39
76022;BME280;64718;52.124;6.226;2022-12-18T00:14:15;102936.66;;;-6.93;96.38
76022;BME280;64718;52.124;6.226;2022-12-18T00:16:43;102926.56;;;-6.93;96.42
76022;BME280;64718;52.124;6.226;2022-12-18T00:19:11;102929.66;;;-7.11;96.78
76022;BME280;64718;52.124;6.226;2022-12-18T00:21:37;102935.97;;;-7.17;96.63
76022;BME280;64718;52.124;6.226;2022-12-18T00:24:04;102930.44;;;-7.38;96.88
76022;BME280;64718;52.124;6.226;2022-12-18T00:26:32;102919.84;;;-7.46;97.17
76022;BME280;64718;52.124;6.226;2022-12-18T00:29:00;102919.84;;;-7.32;97.21
76022;BME280;64718;52.124;6.226;2022-12-18T00:31:28;102917.53;;;-7.29;97.23
76022;BME280;64718;52.124;6.226;2022-12-18T00:33:56;102915.56;;;-7.34;97.33
76022;BME280;64718;52.124;6.226;2022-12-18T00:36:25;102913.94;;;-7.33;97.18
76022;BME280;64718;52.124;6.226;2022-12-18T00:38:53;102907.03;;;-7.36;97.10
76022;BME280;64718;52.124;6.226;2022-12-18T00:41:20;102921.69;;;-7.43;97.42
76022;BME280;64718;52.124;6.226;2022-12-18T00:44:00;102915.97;;;-7.41;97.56
76022;BME280;64718;52.124;6.226;2022-12-18T00:46:28;102919.38;;;-7.40;97.87
76022;BME280;64718;52.124;6.226;2022-12-18T00:48:55;102918.59;;;-7.39;97.74
76022;BME280;64718;52.124;6.226;2022-12-18T00:51:21;102921.31;;;-7.36;97.69
76022;BME280;64718;52.124;6.226;2022-12-18T00:53:48;102917.53;;;-7.29;97.88
76022;BME280;64718;52.124;6.226;2022-12-18T00:56:14;102930.06;;;-7.44;97.43
76022;BME280;64718;52.124;6.226;2022-12-18T00:58:41;102927.44;;;-7.46;97.44
76022;BME280;64718;52.124;6.226;2022-12-18T01:01:08;102919.03;;;-7.58;97.61
76022;BME280;64718;52.124;6.226;2022-12-18T01:03:36;102923.94;;;-7.48;97.44
76022;BME280;64718;52.124;6.226;2022-12-18T01:06:05;102923.78;;;-7.62;97.29
76022;BME280;64718;52.124;6.226;2022-12-18T01:08:32;102918.94;;;-7.73;97.40
76022;BME280;64718;52.124;6.226;2022-12-18T01:10:59;102909.41;;;-7.77;97.27
76022;BME280;64718;52.124;6.226;2022-12-18T01:13:25;102911.16;;;-7.76;96.93
76022;BME280;64718;52.124;6.226;2022-12-18T01:15:52;102925.13;;;-7.81;97.09
76022;BME280;64718;52.124;6.226;2022-12-18T01:18:18;102923.09;;;-7.86;96.92
76022;BME280;64718;52.124;6.226;2022-12-18T01:20:46;102908.44;;;-7.66;96.93
76022;BME280;64718;52.124;6.226;2022-12-18T01:23:13;102905.91;;;-7.66;97.00
76022;BME280;64718;52.124;6.226;2022-12-18T01:25:39;102901.34;;;-7.58;96.98
76022;BME280;64718;52.124;6.226;2022-12-18T01:28:06;102904.56;;;-7.60;96.74
76022;BME280;64718;52.124;6.226;2022-12-18T01:30:32;102909.81;;;-7.71;97.05
76022;BME280;64718;52.124;6.226;2022-12-18T01:32:59;102908.97;;;-7.96;96.37
76022;BME280;64718;52.124;6.226;2022-12-18T01:35:26;102908.50;;;-8.15;96.51
76022;BME280;64718;52.124;6.226;2022-12-18T01:37:55;102902.66;;;-8.03;97.00
76022;BME280;64718;52.124;6.226;2022-12-18T01:40:22;102904.66;;;-8.10;97.02
76022;BME280;64718;52.124;6.226;2022-12-18T01:42:50;102903.84;;;-8.22;96.88
76022;BME280;64718;52.124;6.226;2022-12-18T01:45:23;102904.03;;;-8.19;96.29
76022;BME280;64718;52.124;6.226;2022-12-18T01:47:52;102907.63;;;-8.16;96.78
76022;BME280;64718;52.124;6.226;2022-12-18T01:50:22;102911.19;;;-8.25;96.70
76022;BME280;64718;52.124;6.226;2022-12-18T01:52:51;102910.72;;;-8.33;96.59
76022;BME280;64718;52.124;6.226;2022-12-18T01:55:22;102919.34;;;-8.30;96.91
76022;BME280;64718;52.124;6.226;2022-12-18T01:57:52;102927.00;;;-8.28;97.07
76022;BME280;64718;52.124;6.226;2022-12-18T02:00:21;102920.63;;;-8.23;97.11
76022;BME280;64718;52.124;6.226;2022-12-18T02:02:48;102919.19;;;-8.19;97.25
76022;BME280;64718;52.124;6.226;2022-12-18T02:05:17;102909.75;;;-8.22;96.59
76022;BME280;64718;52.124;6.226;2022-12-18T02:07:52;102908.59;;;-8.02;96.54
76022;BME280;64718;52.124;6.226;2022-12-18T02:10:27;102920.91;;;-8.07;96.37
76022;BME280;64718;52.124;6.226;2022-12-18T02:13:00;102928.59;;;-8.17;96.28
76022;BME280;64718;52.124;6.226;2022-12-18T02:15:34;102921.47;;;-8.36;96.30
76022;BME280;64718;52.124;6.226;2022-12-18T02:18:05;102921.59;;;-8.34;96.49
76022;BME280;64718;52.124;6.226;2022-12-18T02:20:36;102918.00;;;-8.24;96.77
76022;BME280;64718;52.124;6.226;2022-12-18T02:23:12;102919.75;;;-8.23;96.92
76022;BME280;64718;52.124;6.226;2022-12-18T02:26:02;102929.66;;;-8.51;96.23
76022;BME280;64718;52.124;6.226;2022-12-18T02:28:34;102925.97;;;-8.68;96.17
76022;BME280;64718;52.124;6.226;2022-12-18T02:31:04;102916.75;;;-8.68;96.17
76022;BME280;64718;52.124;6.226;2022-12-18T02:33:33;102917.53;;;-8.69;96.08
76022;BME280;64718;52.124;6.226;2022-12-18T02:36:01;102917.81;;;-8.52;96.57
76022;BME280;64718;52.124;6.226;2022-12-18T02:38:30;102923.06;;;-8.49;96.64
76022;BME280;64718;52.124;6.226;2022-12-18T02:40:59;102930.50;;;-8.39;96.57
76022;BME280;64718;52.124;6.226;2022-12-18T02:43:26;102926.16;;;-8.53;96.15
76022;BME280;64718;52.124;6.226;2022-12-18T02:45:54;102931.50;;;-8.49;96.39
76022;BME280;64718;52.124;6.226;2022-12-18T02:48:24;102929.16;;;-8.59;95.76
76022;BME280;64718;52.124;6.226;2022-12-18T02:50:59;102929.97;;;-8.47;96.45
76022;BME280;64718;52.124;6.226;2022-12-18T02:53:35;102937.38;;;-8.73;96.01
76022;BME280;64718;52.124;6.226;2022-12-18T02:56:09;102926.25;;;-9.00;95.71
76022;BME280;64718;52.124;6.226;2022-12-18T02:58:44;102924.59;;;-8.88;96.28
76022;BME280;64718;52.124;6.226;2022-12-18T03:01:16;102914.31;;;-8.54;96.79
76022;BME280;64718;52.124;6.226;2022-12-18T03:03:48;102910.06;;;-8.55;96.39
76022;BME280;64718;52.124;6.226;2022-12-18T03:06:21;102908.34;;;-8.43;96.78
76022;BME280;64718;52.124;6.226;2022-12-18T03:08:52;102914.31;;;-8.54;96.17
76022;BME280;64718;52.124;6.226;2022-12-18T03:11:21;102905.47;;;-8.36;96.44
76022;BME280;64718;52.124;6.226;2022-12-18T03:14:09;102923.91;;;-8.37;95.81
76022;BME280;64718;52.124;6.226;2022-12-18T03:16:37;102917.16;;;-8.50;95.96
76022;BME280;64718;52.124;6.226;2022-12-18T03:19:06;102905.47;;;-8.61;95.63
76022;BME280;64718;52.124;6.226;2022-12-18T03:21:38;102901.63;;;-8.68;95.65
76022;BME280;64718;52.124;6.226;2022-12-18T03:24:08;102905.72;;;-8.81;95.67
76022;BME280;64718;52.124;6.226;2022-12-18T03:26:40;102905.75;;;-8.93;95.50
76022;BME280;64718;52.124;6.226;2022-12-18T03:29:09;102896.31;;;-8.84;95.60
76022;BME280;64718;52.124;6.226;2022-12-18T03:31:40;102905.97;;;-8.90;95.79
76022;BME280;64718;52.124;6.226;2022-12-18T03:34:12;102897.50;;;-8.79;95.90
76022;BME280;64718;52.124;6.226;2022-12-18T03:36:40;102885.31;;;-8.73;96.23
76022;BME280;64718;52.124;6.226;2022-12-18T03:39:07;102885.41;;;-8.59;96.20
76022;BME280;64718;52.124;6.226;2022-12-18T03:41:40;102873.19;;;-8.53;96.26
76022;BME280;64718;52.124;6.226;2022-12-18T03:44:12;102875.97;;;-8.62;95.93
76022;BME280;64718;52.124;6.226;2022-12-18T03:46:41;102868.63;;;-8.71;95.54
76022;BME280;64718;52.124;6.226;2022-12-18T03:49:11;102868.31;;;-8.39;96.29
76022;BME280;64718;52.124;6.226;2022-12-18T03:51:46;102871.50;;;-8.41;96.43
76022;BME280;64718;52.124;6.226;2022-12-18T03:54:15;102878.19;;;-8.42;95.89
76022;BME280;64718;52.124;6.226;2022-12-18T03:56:47;102875.97;;;-8.37;96.02
76022;BME280;64718;52.124;6.226;2022-12-18T03:59:16;102877.41;;;-8.27;95.72
76022;BME280;64718;52.124;6.226;2022-12-18T04:01:46;102872.69;;;-8.23;95.82
76022;BME280;64718;52.124;6.226;2022-12-18T04:04:16;102876.94;;;-8.22;95.43
76022;BME280;64718;52.124;6.226;2022-12-18T04:06:45;102866.69;;;-8.12;95.69
76022;BME280;64718;52.124;6.226;2022-12-18T04:09:13;102872.00;;;-8.20;95.31
76022;BME280;64718;52.124;6.226;2022-12-18T04:11:40;102865.59;;;-8.15;95.57
76022;BME280;64718;52.124;6.226;2022-12-18T04:14:10;102857.69;;;-8.08;95.66
76022;BME280;64718;52.124;6.226;2022-12-18T04:16:37;102855.91;;;-8.09;95.18
76022;BME280;64718;52.124;6.226;2022-12-18T04:19:03;102866.38;;;-8.16;95.44
76022;BME280;64718;52.124;6.226;2022-12-18T04:21:30;102862.22;;;-8.16;95.12
76022;BME280;64718;52.124;6.226;2022-12-18T04:23:57;102869.97;;;-8.13;95.30
76022;BME280;64718;52.124;6.226;2022-12-18T04:26:23;102867.16;;;-8.17;95.45
76022;BME280;64718;52.124;6.226;2022-12-18T04:28:50;102862.00;;;-8.19;95.41
76022;BME280;64718;52.124;6.226;2022-12-18T04:31:18;102861.63;;;-8.25;95.20
76022;BME280;64718;52.124;6.226;2022-12-18T04:33:44;102853.06;;;-8.27;95.36
76022;BME280;64718;52.124;6.226;2022-12-18T04:36:11;102863.81;;;-8.43;95.36
76022;BME280;64718;52.124;6.226;2022-12-18T04:38:38;102861.41;;;-8.41;95.23
76022;BME280;64718;52.124;6.226;2022-12-18T04:41:04;102851.13;;;-8.44;95.24
76022;BME280;64718;52.124;6.226;2022-12-18T04:43:31;102849.00;;;-8.25;95.19
76022;BME280;64718;52.124;6.226;2022-12-18T04:46:02;102849.44;;;-8.06;95.50
76022;BME280;64718;52.124;6.226;2022-12-18T04:48:30;102839.16;;;-8.09;95.57
76022;BME280;64718;52.124;6.226;2022-12-18T04:50:56;102841.34;;;-8.13;95.63
76022;BME280;64718;52.124;6.226;2022-12-18T04:53:23;102846.97;;;-8.17;95.27
76022;BME280;64718;52.124;6.226;2022-12-18T04:55:50;102852.66;;;-8.08;95.09
76022;BME280;64718;52.124;6.226;2022-12-18T04:58:16;102845.97;;;-7.94;95.45
76022;BME280;64718;52.124;6.226;2022-12-18T05:00:43;102849.75;;;-8.01;95.02
76022;BME280;64718;52.124;6.226;2022-12-18T05:03:09;102852.47;;;-7.98;95.24
76022;BME280;64718;52.124;6.226;2022-12-18T05:05:37;102841.53;;;-8.10;95.18
76022;BME280;64718;52.124;6.226;2022-12-18T05:08:04;102847.38;;;-8.11;94.64
76022;BME280;64718;52.124;6.226;2022-12-18T05:10:31;102847.34;;;-8.24;94.64
76022;BME280;64718;52.124;6.226;2022-12-18T05:12:57;102852.69;;;-8.20;95.28
76022;BME280;64718;52.124;6.226;2022-12-18T05:15:28;102845.13;;;-8.20;95.22
76022;BME280;64718;52.124;6.226;2022-12-18T05:17:54;102841.06;;;-8.18;95.28
76022;BME280;64718;52.124;6.226;2022-12-18T05:20:21;102841.59;;;-7.97;95.32
76022;BME280;64718;52.124;6.226;2022-12-18T05:22:49;102851.00;;;-8.08;95.03
76022;BME280;64718;52.124;6.226;2022-12-18T05:25:16;102864.44;;;-8.20;94.64
76022;BME280;64718;52.124;6.226;2022-12-18T05:27:43;102872.28;;;-8.29;94.96
76022;BME280;64718;52.124;6.226;2022-12-18T05:30:11;102865.97;;;-8.36;95.55
76022;BME280;64718;52.124;6.226;2022-12-18T05:32:38;102879.22;;;-8.51;95.33
76022;BME280;64718;52.124;6.226;2022-12-18T05:35:06;102895.69;;;-8.68;95.27
76022;BME280;64718;52.124;6.226;2022-12-18T05:37:33;102894.63;;;-8.72;95.30
76022;BME280;64718;52.124;6.226;2022-12-18T05:40:02;102899.81;;;-8.82;95.46
76022;BME280;64718;52.124;6.226;2022-12-18T05:42:30;102908.16;;;-8.95;94.67
76022;BME280;64718;52.124;6.226;2022-12-18T05:44:56;102912.59;;;-9.15;95.15
76022;BME280;64718;52.124;6.226;2022-12-18T05:47:23;102916.63;;;-9.29;95.06
76022;BME280;64718;52.124;6.226;2022-12-18T05:49:50;102923.97;;;-9.32;94.85
76022;BME280;64718;52.124;6.226;2022-12-18T05:52:16;102921.13;;;-9.37;95.84
76022;BME280;64718;52.124;6.226;2022-12-18T05:54:43;102914.09;;;-9.41;95.55
76022;BME280;64718;52.124;6.226;2022-12-18T05:57:11;102911.56;;;-9.29;95.50
76022;BME280;64718;52.124;6.226;2022-12-18T05:59:37;102906.66;;;-9.39;95.12
76022;BME280;64718;52.124;6.226;2022-12-18T06:02:04;102907.44;;;-9.40;95.54
76022;BME280;64718;52.124;6.226;2022-12-18T06:04:30;102905.00;;;-9.39;95.35
76022;BME280;64718;52.124;6.226;2022-12-18T06:06:57;102904.91;;;-9.29;94.92
76022;BME280;64718;52.124;6.226;2022-12-18T06:09:24;102902.94;;;-9.21;95.37
76022;BME280;64718;52.124;6.226;2022-12-18T06:11:51;102898.34;;;-9.15;95.25
76022;BME280;64718;52.124;6.226;2022-12-18T06:14:19;102894.28;;;-9.13;95.29
76022;BME280;64718;52.124;6.226;2022-12-18T06:16:45;102886.28;;;-9.07;94.87
76022;BME280;64718;52.124;6.226;2022-12-18T06:19:14;102883.31;;;-9.02;95.34
76022;BME280;64718;52.124;6.226;2022-12-18T06:21:41;102887.13;;;-8.95;95.50
76022;BME280;64718;52.124;6.226;2022-12-18T06:24:08;102885.16;;;-8.99;95.12
76022;BME280;64718;52.124;6.226;2022-12-18T06:26:37;102879.78;;;-8.92;95.11
76022;BME280;64718;52.124;6.226;2022-12-18T06:29:04;102871.66;;;-8.88;95.17
76022;BME280;64718;52.124;6.226;2022-12-18T06:31:32;102873.25;;;-8.77;95.31
76022;BME280;64718;52.124;6.226;2022-12-18T06:33:59;102861.28;;;-8.68;94.94
76022;BME280;64718;52.124;6.226;2022-12-18T06:36:25;102856.00;;;-8.59;95.20
76022;BME280;64718;52.124;6.226;2022-12-18T06:38:52;102858.16;;;-8.52;94.77
76022;BME280;64718;52.124;6.226;2022-12-18T06:41:20;102867.38;;;-8.52;95.02
76022;BME280;64718;52.124;6.226;2022-12-18T06:43:47;102857.56;;;-8.61;94.90
76022;BME280;64718;52.124;6.226;2022-12-18T06:46:13;102848.03;;;-8.65;95.45
76022;BME280;64718;52.124;6.226;2022-12-18T06:48:42;102854.16;;;-8.73;95.02
76022;BME280;64718;52.124;6.226;2022-12-18T06:51:08;102863.00;;;-8.91;94.86
76022;BME280;64718;52.124;6.226;2022-12-18T06:53:35;102855.56;;;-8.90;94.79
76022;BME280;64718;52.124;6.226;2022-12-18T06:56:02;102853.13;;;-8.88;95.04
76022;BME280;64718;52.124;6.226;2022-12-18T06:58:29;102851.13;;;-8.81;95.15
76022;BME280;64718;52.124;6.226;2022-12-18T07:00:59;102839.16;;;-8.72;95.55
76022;BME280;64718;52.124;6.226;2022-12-18T07:03:27;102839.03;;;-8.73;95.10
76022;BME280;64718;52.124;6.226;2022-12-18T07:05:55;102835.25;;;-8.80;95.11
76022;BME280;64718;52.124;6.226;2022-12-18T07:08:21;102827.97;;;-8.75;95.39
76022;BME280;64718;52.124;6.226;2022-12-18T07:10:48;102831.47;;;-8.73;95.22
76022;BME280;64718;52.124;6.226;2022-12-18T07:13:15;102823.91;;;-8.73;94.73
76022;BME280;64718;52.124;6.226;2022-12-18T07:15:42;102830.59;;;-8.62;95.30
76022;BME280;64718;52.124;6.226;2022-12-18T07:18:08;102831.41;;;-8.50;95.73
76022;BME280;64718;52.124;6.226;2022-12-18T07:20:35;102833.97;;;-8.62;95.21
76022;BME280;64718;52.124;6.226;2022-12-18T07:23:03;102834.91;;;-8.48;95.28
76022;BME280;64718;52.124;6.226;2022-12-18T07:25:30;102825.97;;;-8.30;95.30
76022;BME280;64718;52.124;6.226;2022-12-18T07:27:56;102824.06;;;-8.34;95.25
76022;BME280;64718;52.124;6.226;2022-12-18T07:30:23;102825.22;;;-8.29;95.34
76022;BME280;64718;52.124;6.226;2022-12-18T07:32:50;102819.22;;;-8.17;95.33
76022;BME280;64718;52.124;6.226;2022-12-18T07:35:16;102819.88;;;-8.20;95.05
76022;BME280;64718;52.124;6.226;2022-12-18T07:37:44;102822.56;;;-8.05;95.18
76022;BME280;64718;52.124;6.226;2022-12-18T07:40:12;102819.06;;;-7.94;94.81
76022;BME280;64718;52.124;6.226;2022-12-18T07:42:38;102828.69;;;-7.88;94.80
76022;BME280;64718;52.124;6.226;2022-12-18T07:45:06;102828.78;;;-7.87;94.42
76022;BME280;64718;52.124;6.226;2022-12-18T07:47:34;102841.41;;;-7.74;94.24
76022;BME280;64718;52.124;6.226;2022-12-18T07:50:01;102839.28;;;-7.54;94.30
76022;BME280;64718;52.124;6.226;2022-12-18T07:52:28;102830.72;;;-7.56;94.08
76022;BME280;64718;52.124;6.226;2022-12-18T07:54:54;102820.72;;;-7.55;94.03
76022;BME280;64718;52.124;6.226;2022-12-18T07:57:22;102830.34;;;-7.62;93.96
76022;BME280;64718;52.124;6.226;2022-12-18T07:59:49;102810.53;;;-7.70;94.07
76022;BME280;64718;52.124;6.226;2022-12-18T08:02:15;102805.09;;;-7.62;93.81
76022;BME280;64718;52.124;6.226;2022-12-18T08:04:42;102798.47;;;-7.60;94.04
76022;BME280;64718;52.124;6.226;2022-12-18T08:07:08;102793.81;;;-7.54;94.06
76022;BME280;64718;52.124;6.226;2022-12-18T08:09:35;102783.31;;;-7.47;94.03
76022;BME280;64718;52.124;6.226;2022-12-18T08:12:01;102774.66;;;-7.38;94.01
76022;BME280;64718;52.124;6.226;2022-12-18T08:14:29;102783.75;;;-7.26;93.64
76022;BME280;64718;52.124;6.226;2022-12-18T08:16:56;102769.06;;;-7.19;93.63
76022;BME280;64718;52.124;6.226;2022-12-18T08:19:23;102762.31;;;-7.05;93.55
76022;BME280;64718;52.124;6.226;2022-12-18T08:21:49;102767.34;;;-6.92;93.16
76022;BME280;64718;52.124;6.226;2022-12-18T08:24:16;102764.28;;;-6.86;92.84
76022;BME280;64718;52.124;6.226;2022-12-18T08:26:42;102774.72;;;-6.67;92.98
76022;BME280;64718;52.124;6.226;2022-12-18T08:29:09;102770.78;;;-6.62;92.92
76022;BME280;64718;52.124;6.226;2022-12-18T08:31:37;102766.94;;;-6.55;92.93
76022;BME280;64718;52.124;6.226;2022-12-18T08:34:04;102776.19;;;-6.56;93.07
76022;BME280;64718;52.124;6.226;2022-12-18T08:36:30;102778.56;;;-6.44;93.11
76022;BME280;64718;52.124;6.226;2022-12-18T08:38:57;102782.59;;;-6.33;92.53
76022;BME280;64718;52.124;6.226;2022-12-18T08:41:23;102769.44;;;-6.27;92.53
76022;BME280;64718;52.124;6.226;2022-12-18T08:43:50;102762.34;;;-6.18;92.51
76022;BME280;64718;52.124;6.226;2022-12-18T08:46:36;102756.31;;;-6.06;92.47
76022;BME280;64718;52.124;6.226;2022-12-18T08:49:05;102757.53;;;-5.99;92.42
76022;BME280;64718;52.124;6.226;2022-12-18T08:51:32;102749.06;;;-5.83;91.45
76022;BME280;64718;52.124;6.226;2022-12-18T08:53:58;102752.06;;;-5.76;91.95
76022;BME280;64718;52.124;6.226;2022-12-18T08:56:25;102756.56;;;-5.70;92.12
76022;BME280;64718;52.124;6.226;2022-12-18T08:58:53;102762.22;;;-5.59;91.79
76022;BME280;64718;52.124;6.226;2022-12-18T09:01:20;102766.59;;;-5.57;91.47
76022;BME280;64718;52.124;6.226;2022-12-18T09:03:47;102774.75;;;-5.46;90.91
76022;BME280;64718;52.124;6.226;2022-12-18T09:06:16;102775.09;;;-5.40;90.18
76022;BME280;64718;52.124;6.226;2022-12-18T09:08:43;102770.25;;;-5.35;91.05
76022;BME280;64718;52.124;6.226;2022-12-18T09:11:14;102770.59;;;-5.29;89.22
76022;BME280;64718;52.124;6.226;2022-12-18T09:13:40;102759.66;;;-5.28;90.38
76022;BME280;64718;52.124;6.226;2022-12-18T09:16:07;102768.13;;;-5.28;90.07
76022;BME280;64718;52.124;6.226;2022-12-18T09:18:33;102766.78;;;-5.21;90.97
76022;BME280;64718;52.124;6.226;2022-12-18T09:21:07;102771.34;;;-5.16;90.19
76022;BME280;64718;52.124;6.226;2022-12-18T09:23:35;102761.59;;;-5.08;89.99
76022;BME280;64718;52.124;6.226;2022-12-18T09:26:02;102764.69;;;-4.97;89.16
76022;BME280;64718;52.124;6.226;2022-12-18T09:28:28;102758.72;;;-4.82;88.82
76022;BME280;64718;52.124;6.226;2022-12-18T09:30:55;102752.22;;;-4.77;89.47
76022;BME280;64718;52.124;6.226;2022-12-18T09:33:21;102745.84;;;-4.68;88.83
76022;BME280;64718;52.124;6.226;2022-12-18T09:35:48;102742.00;;;-4.62;88.19
76022;BME280;64718;52.124;6.226;2022-12-18T09:38:16;102741.66;;;-4.52;87.19
76022;BME280;64718;52.124;6.226;2022-12-18T09:40:47;102751.31;;;-4.44;87.74
76022;BME280;64718;52.124;6.226;2022-12-18T09:43:18;102753.41;;;-4.36;88.09
76022;BME280;64718;52.124;6.226;2022-12-18T09:45:49;102768.16;;;-4.29;87.78
76022;BME280;64718;52.124;6.226;2022-12-18T09:48:20;102756.63;;;-4.22;87.61
76022;BME280;64718;52.124;6.226;2022-12-18T09:50:50;102748.44;;;-4.17;88.24
76022;BME280;64718;52.124;6.226;2022-12-18T09:53:20;102737.69;;;-4.11;86.63
76022;BME280;64718;52.124;6.226;2022-12-18T09:55:51;102737.91;;;-4.06;86.47
76022;BME280;64718;52.124;6.226;2022-12-18T09:58:21;102738.22;;;-4.00;88.72
76022;BME280;64718;52.124;6.226;2022-12-18T10:00:51;102731.63;;;-3.97;87.16
76022;BME280;64718;52.124;6.226;2022-12-18T10:03:18;102743.81;;;-3.90;88.48
76022;BME280;64718;52.124;6.226;2022-12-18T10:05:54;102735.47;;;-3.87;87.98
76022;BME280;64718;52.124;6.226;2022-12-18T10:08:25;102739.69;;;-3.88;86.26
76022;BME280;64718;52.124;6.226;2022-12-18T10:10:58;102733.88;;;-3.85;85.60
76022;BME280;64718;52.124;6.226;2022-12-18T10:13:31;102710.19;;;-3.84;86.89
76022;BME280;64718;52.124;6.226;2022-12-18T10:16:09;102701.09;;;-3.79;86.52
76022;BME280;64718;52.124;6.226;2022-12-18T10:18:52;102697.69;;;-3.79;86.06
76022;BME280;64718;52.124;6.226;2022-12-18T10:21:24;102702.25;;;-3.72;86.77
76022;BME280;64718;52.124;6.226;2022-12-18T10:24:00;102693.81;;;-3.71;85.82
76022;BME280;64718;52.124;6.226;2022-12-18T10:26:31;102688.94;;;-3.67;85.96
76022;BME280;64718;52.124;6.226;2022-12-18T10:28:58;102678.19;;;-3.61;87.08
76022;BME280;64718;52.124;6.226;2022-12-18T10:31:25;102678.31;;;-3.58;84.98
76022;BME280;64718;52.124;6.226;2022-12-18T10:33:53;102677.72;;;-3.53;84.84
76022;BME280;64718;52.124;6.226;2022-12-18T10:36:20;102680.63;;;-3.45;85.68
76022;BME280;64718;52.124;6.226;2022-12-18T10:38:47;102678.34;;;-3.39;86.64
76022;BME280;64718;52.124;6.226;2022-12-18T10:41:24;102681.22;;;-3.31;85.27
76022;BME280;64718;52.124;6.226;2022-12-18T10:44:11;102671.31;;;-3.25;84.99
76022;BME280;64718;52.124;6.226;2022-12-18T10:46:38;102663.69;;;-3.25;85.13
76022;BME280;64718;52.124;6.226;2022-12-18T10:49:05;102655.19;;;-3.26;84.39
76022;BME280;64718;52.124;6.226;2022-12-18T10:51:33;102648.38;;;-3.27;83.67
76022;BME280;64718;52.124;6.226;2022-12-18T10:54:01;102651.03;;;-3.24;84.43
76022;BME280;64718;52.124;6.226;2022-12-18T10:56:30;102640.19;;;-3.20;85.23
76022;BME280;64718;52.124;6.226;2022-12-18T10:59:01;102626.59;;;-3.20;85.45
76022;BME280;64718;52.124;6.226;2022-12-18T11:01:33;102643.66;;;-3.17;82.79
76022;BME280;64718;52.124;6.226;2022-12-18T11:04:17;102641.84;;;-3.20;84.69
76022;BME280;64718;52.124;6.226;2022-12-18T11:06:53;102634.47;;;-3.14;84.89
76022;BME280;64718;52.124;6.226;2022-12-18T11:09:23;102642.38;;;-3.08;84.04
76022;BME280;64718;52.124;6.226;2022-12-18T11:11:50;102639.03;;;-3.07;83.29
76022;BME280;64718;52.124;6.226;2022-12-18T11:14:23;102641.69;;;-3.04;84.19
76022;BME280;64718;52.124;6.226;2022-12-18T11:16:51;102644.31;;;-3.02;84.71
76022;BME280;64718;52.124;6.226;2022-12-18T11:19:30;102641.03;;;-3.00;85.08
76022;BME280;64718;52.124;6.226;2022-12-18T11:21:58;102645.56;;;-2.93;85.13
76022;BME280;64718;52.124;6.226;2022-12-18T11:24:29;102651.75;;;-2.88;85.25
76022;BME280;64718;52.124;6.226;2022-12-18T11:26:57;102642.44;;;-2.87;83.87
76022;BME280;64718;52.124;6.226;2022-12-18T11:29:31;102634.03;;;-2.84;84.27
76022;BME280;64718;52.124;6.226;2022-12-18T11:32:22;102632.38;;;-2.84;83.95
76022;BME280;64718;52.124;6.226;2022-12-18T11:34:52;102630.06;;;-2.78;85.62
76022;BME280;64718;52.124;6.226;2022-12-18T11:37:20;102616.47;;;-2.78;83.52
76022;BME280;64718;52.124;6.226;2022-12-18T11:39:51;102614.97;;;-2.73;84.19
76022;BME280;64718;52.124;6.226;2022-12-18T11:42:30;102611.88;;;-2.66;84.84
76022;BME280;64718;52.124;6.226;2022-12-18T11:45:16;102610.44;;;-2.60;84.33
76022;BME280;64718;52.124;6.226;2022-12-18T11:47:51;102600.25;;;-2.60;83.23
76022;BME280;64718;52.124;6.226;2022-12-18T11:50:24;102590.28;;;-2.53;84.58
76022;BME280;64718;52.124;6.226;2022-12-18T11:52:51;102596.31;;;-2.51;83.34
76022;BME280;64718;52.124;6.226;2022-12-18T11:55:25;102595.75;;;-2.44;84.11
76022;BME280;64718;52.124;6.226;2022-12-18T11:58:02;102595.00;;;-2.42;82.81
76022;BME280;64718;52.124;6.226;2022-12-18T12:00:36;102590.66;;;-2.44;82.57
76022;BME280;64718;52.124;6.226;2022-12-18T12:03:20;102593.44;;;-2.38;83.82
76022;BME280;64718;52.124;6.226;2022-12-18T12:05:57;102574.25;;;-2.30;85.59
76022;BME280;64718;52.124;6.226;2022-12-18T12:08:38;102581.69;;;-2.35;81.17
76022;BME280;64718;52.124;6.226;2022-12-18T12:11:15;102570.00;;;-2.30;82.93
76022;BME280;64718;52.124;6.226;2022-12-18T12:14:01;102567.47;;;-2.30;82.37
76022;BME280;64718;52.124;6.226;2022-12-18T12:16:37;102550.28;;;-2.34;81.64
76022;BME280;64718;52.124;6.226;2022-12-18T12:19:21;102538.81;;;-2.24;84.34
76022;BME280;64718;52.124;6.226;2022-12-18T12:21:52;102540.16;;;-2.32;81.10
76022;BME280;64718;52.124;6.226;2022-12-18T12:24:24;102533.53;;;-2.29;82.35
76022;BME280;64718;52.124;6.226;2022-12-18T12:27:01;102536.19;;;-2.26;83.16
76022;BME280;64718;52.124;6.226;2022-12-18T12:29:41;102534.56;;;-2.24;81.14
76022;BME280;64718;52.124;6.226;2022-12-18T12:32:24;102531.22;;;-2.22;80.99
76022;BME280;64718;52.124;6.226;2022-12-18T12:35:05;102542.38;;;-2.19;82.35
76022;BME280;64718;52.124;6.226;2022-12-18T12:37:45;102537.34;;;-2.17;82.63
76022;BME280;64718;52.124;6.226;2022-12-18T12:40:21;102529.69;;;-2.17;82.46
76022;BME280;64718;52.124;6.226;2022-12-18T12:42:53;102534.75;;;-2.19;80.79
76022;BME280;64718;52.124;6.226;2022-12-18T12:45:41;102528.78;;;-2.19;82.66
76022;BME280;64718;52.124;6.226;2022-12-18T12:48:17;102524.56;;;-2.19;82.82
76022;BME280;64718;52.124;6.226;2022-12-18T12:50:45;102518.81;;;-2.13;82.96
76022;BME280;64718;52.124;6.226;2022-12-18T12:53:21;102527.22;;;-2.16;82.18
76022;BME280;64718;52.124;6.226;2022-12-18T12:55:48;102514.41;;;-2.17;79.71
76022;BME280;64718;52.124;6.226;2022-12-18T12:58:19;102502.53;;;-2.17;82.14
76022;BME280;64718;52.124;6.226;2022-12-18T13:00:54;102509.38;;;-2.16;81.89
76022;BME280;64718;52.124;6.226;2022-12-18T13:03:42;102497.56;;;-2.14;81.05